createdAt,value
2022-08-04T00:01:07.764Z,15.02
2022-08-04T00:04:20.400Z,14.68
2022-08-04T00:07:04.612Z,15.77
2022-08-04T00:10:01.509Z,15.75
2022-08-04T00:12:33.021Z,14.95
2022-08-04T00:15:05.909Z,17.80
2022-08-04T00:17:40.620Z,14.52
2022-08-04T00:20:10.159Z,14.43
2022-08-04T00:22:41.063Z,16.67
2022-08-04T00:25:08.707Z,14.02
2022-08-04T00:27:36.895Z,15.70
2022-08-04T00:30:06.038Z,16.70
2022-08-04T00:32:34.896Z,15.75
2022-08-04T00:35:03.100Z,15.98
2022-08-04T00:37:32.962Z,16.45
2022-08-04T00:40:01.404Z,13.93
2022-08-04T00:42:38.049Z,14.57
2022-08-04T00:45:28.517Z,16.17
2022-08-04T00:48:09.404Z,14.90
2022-08-04T00:50:58.031Z,15.75
2022-08-04T00:53:28.393Z,16.00
2022-08-04T00:56:33.727Z,16.45
2022-08-04T00:59:25.934Z,16.58
2022-08-04T01:02:43.591Z,17.83
2022-08-04T01:05:50.504Z,15.70
2022-08-04T01:08:26.919Z,15.57
2022-08-04T01:11:07.814Z,16.40
2022-08-04T01:14:26.639Z,16.95
2022-08-04T01:17:00.793Z,16.10
2022-08-04T01:20:02.254Z,15.95
2022-08-04T01:22:32.858Z,15.23
2022-08-04T01:25:09.500Z,16.40
2022-08-04T01:28:00.968Z,15.70
2022-08-04T01:30:30.466Z,15.77
2022-08-04T01:33:09.414Z,15.27
2022-08-04T01:35:48.492Z,14.88
2022-08-04T01:38:30.375Z,15.45
2022-08-04T01:41:02.627Z,16.35
2022-08-04T01:43:32.483Z,15.07
2022-08-04T01:46:02.254Z,15.15
2022-08-04T01:48:30.885Z,15.13
2022-08-04T01:51:05.409Z,16.50
2022-08-04T01:53:37.911Z,14.90
2022-08-04T01:56:07.805Z,16.40
2022-08-04T01:58:36.964Z,15.30
2022-08-04T02:01:08.433Z,16.45
2022-08-04T02:04:18.383Z,16.40
2022-08-04T02:06:58.098Z,16.25
2022-08-04T02:09:53.868Z,15.82
2022-08-04T02:12:31.161Z,15.90
2022-08-04T02:15:36.578Z,16.50
2022-08-04T02:18:20.070Z,17.25
2022-08-04T02:20:53.863Z,17.40
2022-08-04T02:23:41.843Z,17.08
2022-08-04T02:26:22.276Z,16.65
2022-08-04T02:29:13.463Z,16.30
2022-08-04T02:32:00.239Z,15.50
2022-08-04T02:34:42.739Z,16.73
2022-08-04T02:37:11.895Z,17.52
2022-08-04T02:39:48.138Z,16.60
2022-08-04T02:42:17.307Z,16.98
2022-08-04T02:45:12.810Z,14.93
2022-08-04T02:48:29.951Z,16.10
2022-08-04T02:50:34.187Z,16.35
2022-08-04T02:53:03.764Z,17.92
2022-08-04T02:55:39.001Z,17.10
2022-08-04T02:58:20.681Z,17.45
2022-08-04T03:00:51.099Z,14.68
2022-08-04T03:03:44.990Z,16.95
2022-08-04T03:06:26.866Z,15.15
2022-08-04T03:09:18.107Z,15.13
2022-08-04T03:12:06.375Z,14.80
2022-08-04T03:14:59.103Z,16.60
2022-08-04T03:17:53.305Z,14.23
2022-08-04T03:20:45.402Z,14.43
2022-08-04T03:23:35.020Z,16.30
2022-08-04T03:26:33.330Z,14.82
2022-08-04T03:29:43.491Z,12.77
2022-08-04T03:32:42.120Z,14.82
2022-08-04T03:35:40.580Z,14.43
2022-08-04T03:38:55.717Z,14.05
2022-08-04T03:42:08.060Z,15.30
2022-08-04T03:44:45.820Z,14.38
2022-08-04T03:47:27.919Z,15.90
2022-08-04T03:50:24.630Z,15.27
2022-08-04T03:53:21.241Z,15.82
2022-08-04T03:56:24.674Z,15.75
2022-08-04T03:59:22.160Z,15.60
2022-08-04T04:02:08.971Z,15.13
2022-08-04T04:04:55.034Z,14.43
2022-08-04T04:07:39.182Z,15.70
2022-08-04T04:10:17.658Z,13.45
2022-08-04T04:13:16.148Z,13.90
2022-08-04T04:16:05.580Z,13.88
2022-08-04T04:18:54.400Z,13.82
2022-08-04T04:21:43.828Z,12.65
2022-08-04T04:24:41.699Z,13.90
2022-08-04T04:27:45.471Z,12.23
2022-08-04T04:30:22.799Z,11.68
2022-08-04T04:32:59.420Z,12.32
2022-08-04T04:35:33.171Z,11.95
2022-08-04T04:38:03.518Z,13.25
2022-08-04T04:40:33.824Z,11.75
2022-08-04T04:43:50.983Z,12.10
2022-08-04T04:46:51.737Z,12.63
2022-08-04T04:49:34.396Z,14.90
2022-08-04T04:52:54.958Z,12.65
2022-08-04T04:55:27.813Z,12.68
2022-08-04T04:57:58.695Z,10.50
2022-08-04T05:00:55.068Z,10.48
2022-08-04T05:03:25.648Z,11.73
2022-08-04T05:06:17.267Z,10.30
2022-08-04T05:09:17.147Z,9.70
2022-08-04T05:11:58.619Z,11.27
2022-08-04T05:14:41.376Z,9.23
2022-08-04T05:17:37.001Z,9.35
2022-08-04T05:20:22.658Z,10.57
2022-08-04T05:22:58.240Z,9.10
2022-08-04T05:25:58.694Z,8.75
2022-08-04T05:28:34.192Z,8.18
2022-08-04T05:31:23.511Z,8.82
2022-08-04T05:34:15.315Z,8.52
2022-08-04T05:36:49.540Z,6.72
2022-08-04T05:39:28.914Z,7.15
2022-08-04T05:42:04.498Z,7.00
2022-08-04T05:44:34.714Z,11.73
2022-08-04T05:47:04.269Z,17.35
2022-08-04T05:49:33.986Z,999.90
2022-08-04T05:52:03.843Z,999.90
2022-08-04T05:54:33.386Z,752.35
2022-08-04T05:57:04.729Z,999.90
2022-08-04T05:59:34.292Z,999.90
2022-08-04T06:02:05.217Z,999.90
2022-08-04T06:04:40.058Z,999.90
2022-08-04T06:07:08.806Z,999.90
2022-08-04T06:09:36.352Z,11.35
2022-08-04T06:12:08.814Z,9.85
2022-08-04T06:14:40.420Z,7.05
2022-08-04T06:18:33.145Z,14.95
2022-08-04T06:20:19.755Z,15.35
2022-08-04T06:22:53.548Z,11.23
2022-08-04T06:25:26.355Z,6.57
2022-08-04T06:27:55.886Z,12.90
2022-08-04T06:30:27.079Z,14.70
2022-08-04T06:33:04.283Z,6.53
2022-08-04T06:35:33.977Z,6.55
2022-08-04T06:38:03.062Z,6.88
2022-08-04T06:40:33.641Z,6.88
2022-08-04T06:43:05.011Z,7.38
2022-08-04T06:45:35.761Z,7.40
2022-08-04T06:48:05.459Z,6.93
2022-08-04T06:51:30.845Z,7.88
2022-08-04T06:53:26.413Z,6.20
2022-08-04T06:55:56.284Z,6.50
2022-08-04T06:58:25.424Z,6.05
2022-08-04T07:00:54.617Z,7.05
2022-08-04T07:03:22.707Z,6.22
2022-08-04T07:05:52.199Z,10.68
2022-08-04T07:08:20.662Z,8.38
2022-08-04T07:10:48.727Z,9.68
2022-08-04T07:13:17.845Z,6.22
2022-08-04T07:15:46.730Z,5.65
2022-08-04T07:18:14.480Z,5.75
2022-08-04T07:20:46.616Z,6.10
2022-08-04T07:23:21.452Z,5.38
2022-08-04T07:25:59.738Z,6.32
2022-08-04T07:28:39.873Z,6.20
2022-08-04T07:31:33.831Z,6.22
2022-08-04T07:34:17.459Z,6.00
2022-08-04T07:36:56.542Z,6.00
2022-08-04T07:39:29.646Z,6.00
2022-08-04T07:42:02.183Z,6.22
2022-08-04T07:44:34.273Z,6.00
2022-08-04T07:47:03.928Z,6.78
2022-08-04T07:49:54.792Z,5.57
2022-08-04T07:52:19.295Z,5.80
2022-08-04T07:54:47.302Z,5.40
2022-08-04T07:57:39.674Z,6.15
2022-08-04T08:00:07.112Z,5.07
2022-08-04T08:02:39.579Z,5.32
2022-08-04T08:05:13.710Z,5.47
2022-08-04T08:07:50.024Z,7.45
2022-08-04T08:10:20.951Z,4.95
2022-08-04T08:12:51.398Z,6.10
2022-08-04T08:15:20.320Z,5.55
2022-08-04T08:17:57.861Z,5.68
2022-08-04T08:20:30.554Z,5.88
2022-08-04T08:22:59.577Z,5.95
2022-08-04T08:25:27.410Z,5.90
2022-08-04T08:27:56.196Z,7.28
2022-08-04T08:30:31.586Z,7.35
2022-08-04T08:33:02.080Z,8.73
2022-08-04T08:35:39.607Z,7.22
2022-08-04T08:38:10.727Z,6.35
2022-08-04T08:41:05.119Z,5.95
2022-08-04T08:44:05.636Z,5.95
2022-08-04T08:47:06.988Z,6.55
2022-08-04T08:50:04.005Z,5.97
2022-08-04T08:53:01.313Z,6.28
2022-08-04T08:55:51.487Z,5.47
2022-08-04T08:58:22.134Z,5.43
2022-08-04T09:01:23.145Z,5.55
2022-08-04T09:04:09.529Z,6.47
2022-08-04T09:07:17.497Z,5.53
2022-08-04T09:10:09.059Z,6.10
2022-08-04T09:13:08.497Z,6.47
2022-08-04T09:16:03.146Z,7.47
2022-08-04T09:18:55.091Z,7.35
2022-08-04T09:21:50.275Z,6.80
2022-08-04T09:24:35.077Z,6.72
2022-08-04T09:27:16.763Z,7.13
2022-08-04T09:30:06.356Z,6.53
2022-08-04T09:32:58.713Z,7.55
2022-08-04T09:35:37.760Z,8.80
2022-08-04T09:38:28.273Z,7.93
2022-08-04T09:41:31.346Z,8.10
2022-08-04T09:44:52.528Z,12.43
2022-08-04T09:47:54.839Z,7.85
2022-08-04T09:50:35.145Z,9.23
2022-08-04T09:53:23.756Z,7.78
2022-08-04T09:56:36.016Z,7.90
2022-08-04T09:59:27.075Z,9.40
2022-08-04T10:02:03.334Z,10.38
2022-08-04T10:04:32.997Z,15.85
2022-08-04T10:07:09.898Z,7.70
2022-08-04T10:10:00.389Z,6.03
2022-08-04T10:12:27.875Z,8.45
2022-08-04T10:15:33.689Z,7.28
2022-08-04T10:18:32.335Z,7.28
2022-08-04T10:21:18.150Z,8.50
2022-08-04T10:24:16.690Z,9.20
2022-08-04T10:27:16.948Z,7.30
2022-08-04T10:29:47.326Z,9.30
2022-08-04T10:32:36.971Z,7.05
2022-08-04T10:35:24.382Z,9.82
2022-08-04T10:38:26.567Z,9.93
2022-08-04T10:41:03.973Z,7.35
2022-08-04T10:43:56.194Z,8.13
2022-08-04T10:46:30.270Z,9.27
2022-08-04T10:49:38.410Z,9.82
2022-08-04T10:52:16.728Z,9.85
2022-08-04T10:55:13.424Z,8.77
2022-08-04T10:57:47.560Z,14.00
2022-08-04T11:00:20.215Z,8.27
2022-08-04T11:03:09.133Z,9.30
2022-08-04T11:06:04.503Z,10.38
2022-08-04T11:08:44.267Z,8.77
2022-08-04T11:11:12.165Z,9.85
2022-08-04T11:14:04.210Z,8.43
2022-08-04T11:17:01.056Z,8.95
2022-08-04T11:19:42.826Z,8.23
2022-08-04T11:22:24.935Z,8.35
2022-08-04T11:25:17.736Z,7.85
2022-08-04T11:28:01.857Z,7.88
2022-08-04T11:31:01.068Z,10.30
2022-08-04T11:33:52.428Z,10.15
2022-08-04T11:36:42.118Z,9.07
2022-08-04T11:39:33.936Z,8.75
2022-08-04T11:42:10.337Z,6.72
2022-08-04T11:44:41.752Z,7.55
2022-08-04T11:47:33.207Z,7.82
2022-08-04T11:50:20.940Z,8.82
2022-08-04T11:52:51.650Z,8.23
2022-08-04T11:55:21.421Z,7.88
2022-08-04T11:57:54.001Z,8.52
2022-08-04T12:00:23.756Z,8.48
2022-08-04T12:03:12.042Z,7.30
2022-08-04T12:06:20.045Z,6.85
2022-08-04T12:09:05.584Z,7.93
2022-08-04T12:12:02.981Z,7.82
2022-08-04T12:14:58.373Z,7.13
2022-08-04T12:17:52.111Z,8.65
2022-08-04T12:20:38.207Z,6.78
2022-08-04T12:23:26.970Z,8.57
2022-08-04T12:25:59.011Z,9.43
2022-08-04T12:28:52.666Z,9.68
2022-08-04T12:31:31.304Z,7.03
2022-08-04T12:34:21.702Z,9.85
2022-08-04T12:37:27.860Z,7.93
2022-08-04T12:40:28.719Z,6.75
2022-08-04T12:43:11.433Z,6.20
2022-08-04T12:45:49.320Z,7.25
2022-08-04T12:48:21.239Z,7.10
2022-08-04T12:50:54.443Z,7.15
2022-08-04T12:53:50.726Z,6.07
2022-08-04T12:56:27.447Z,8.15
2022-08-04T12:59:02.244Z,9.57
2022-08-04T13:02:09.582Z,6.70
2022-08-04T13:04:29.216Z,7.82
2022-08-04T13:07:02.116Z,7.22
2022-08-04T13:09:34.086Z,8.45
2022-08-04T13:12:04.983Z,12.02
2022-08-04T13:14:36.184Z,8.90
2022-08-04T13:17:05.590Z,6.30
2022-08-04T13:19:41.354Z,7.25
2022-08-04T13:22:09.655Z,6.20
2022-08-04T13:24:56.276Z,6.95
2022-08-04T13:27:27.311Z,7.43
2022-08-04T13:30:03.543Z,7.05
2022-08-04T13:32:34.254Z,7.65
2022-08-04T13:35:04.646Z,7.82
2022-08-04T13:37:35.961Z,7.38
2022-08-04T13:40:09.295Z,9.27
2022-08-04T13:42:38.744Z,8.50
2022-08-04T13:45:08.691Z,7.32
2022-08-04T13:47:39.267Z,8.57
2022-08-04T13:50:19.385Z,7.20
2022-08-04T13:52:47.572Z,9.13
2022-08-04T13:56:00.215Z,8.65
2022-08-04T13:58:32.390Z,6.90
2022-08-04T14:01:03.595Z,7.05
2022-08-04T14:03:53.459Z,7.15
2022-08-04T14:06:28.019Z,6.55
2022-08-04T14:08:56.831Z,6.95
2022-08-04T14:12:07.129Z,6.35
2022-08-04T14:14:33.866Z,6.38
2022-08-04T14:17:19.668Z,6.65
2022-08-04T14:20:00.884Z,9.63
2022-08-04T14:22:31.285Z,9.10
2022-08-04T14:25:04.479Z,6.30
2022-08-04T14:27:48.689Z,7.20
2022-08-04T14:30:32.793Z,6.35
2022-08-04T14:34:00.632Z,5.32
2022-08-04T14:35:58.663Z,5.30
2022-08-04T14:38:46.953Z,7.78
2022-08-04T14:41:15.902Z,7.57
2022-08-04T14:44:10.725Z,6.55
2022-08-04T14:46:55.949Z,8.60
2022-08-04T14:49:23.642Z,6.50
2022-08-04T14:51:58.450Z,6.43
2022-08-04T14:54:35.653Z,7.40
2022-08-04T14:57:07.078Z,6.25
2022-08-04T15:00:00.511Z,7.15
2022-08-04T15:02:30.658Z,6.35
2022-08-04T15:04:59.237Z,6.97
2022-08-04T15:07:46.945Z,6.18
2022-08-04T15:10:14.699Z,8.60
2022-08-04T15:12:42.586Z,7.75
2022-08-04T15:15:35.415Z,8.57
2022-08-04T15:17:58.227Z,9.70
2022-08-04T15:20:26.003Z,6.38
2022-08-04T15:22:53.693Z,8.77
2022-08-04T15:25:21.301Z,6.93
2022-08-04T15:27:51.283Z,6.80
2022-08-04T15:30:19.291Z,7.03
2022-08-04T15:33:00.491Z,7.10
2022-08-04T15:35:38.966Z,6.45
2022-08-04T15:38:12.375Z,5.95
2022-08-04T15:40:42.970Z,6.53
2022-08-04T15:43:46.019Z,6.18
2022-08-04T15:46:42.700Z,6.15
2022-08-04T15:49:25.059Z,6.80
2022-08-04T15:52:03.444Z,6.47
2022-08-04T15:54:42.441Z,7.18
2022-08-04T15:58:01.548Z,7.20
2022-08-04T16:00:29.468Z,6.75
2022-08-04T16:02:57.054Z,6.78
2022-08-04T16:05:29.940Z,7.05
2022-08-04T16:08:00.098Z,6.88
2022-08-04T16:10:30.704Z,5.10
2022-08-04T16:13:03.520Z,6.03
2022-08-04T16:15:46.039Z,7.05
2022-08-04T16:18:26.400Z,6.38
2022-08-04T16:20:57.200Z,7.30
2022-08-04T16:23:56.029Z,5.40
2022-08-04T16:26:38.186Z,5.40
2022-08-04T16:29:29.237Z,6.85
2022-08-04T16:32:06.251Z,5.75
2022-08-04T16:34:55.513Z,6.05
2022-08-04T16:37:29.713Z,6.68
2022-08-04T16:40:38.058Z,5.20
2022-08-04T16:43:13.810Z,7.50
2022-08-04T16:45:48.791Z,6.00
2022-08-04T16:48:27.189Z,5.43
2022-08-04T16:51:10.043Z,7.25
2022-08-04T16:53:57.964Z,5.90
2022-08-04T16:56:32.953Z,5.32
2022-08-04T16:59:12.631Z,7.47
2022-08-04T17:01:48.789Z,6.10
2022-08-04T17:04:16.969Z,7.13
2022-08-04T17:06:46.724Z,6.55
2022-08-04T17:09:19.028Z,6.30
2022-08-04T17:11:48.480Z,5.82
2022-08-04T17:14:30.968Z,6.10
2022-08-04T17:17:01.909Z,6.18
2022-08-04T17:19:29.598Z,5.57
2022-08-04T17:22:04.204Z,6.50
2022-08-04T17:24:35.044Z,6.35
2022-08-04T17:27:04.348Z,6.60
2022-08-04T17:29:50.285Z,7.03
2022-08-04T17:32:20.927Z,7.03
2022-08-04T17:34:54.588Z,7.03
2022-08-04T17:37:38.870Z,6.20
2022-08-04T17:40:12.095Z,6.22
2022-08-04T17:42:41.388Z,7.93
2022-08-04T17:45:52.836Z,6.35
2022-08-04T17:48:09.521Z,7.10
2022-08-04T17:50:43.384Z,15.98
2022-08-04T17:55:59.260Z,16.42
2022-08-04T17:58:34.236Z,14.02
2022-08-04T18:01:23.055Z,11.38
2022-08-04T18:03:53.073Z,19.40
2022-08-04T18:06:22.943Z,13.05
2022-08-04T18:08:58.141Z,10.45
2022-08-04T18:11:29.935Z,9.40
2022-08-04T18:14:10.476Z,9.10
2022-08-04T18:16:45.244Z,8.63
2022-08-04T18:19:18.897Z,8.38
2022-08-04T18:21:59.371Z,8.95
2022-08-04T18:24:35.896Z,7.97
2022-08-04T18:27:18.664Z,7.68
2022-08-04T18:30:15.062Z,8.90
2022-08-04T18:32:34.270Z,8.75
2022-08-04T18:35:05.789Z,7.80
2022-08-04T18:38:06.324Z,9.63
2022-08-04T18:40:33.223Z,10.07
2022-08-04T18:43:14.322Z,13.32
2022-08-04T18:45:42.288Z,13.02
2022-08-04T18:48:18.915Z,15.82
2022-08-04T18:51:09.318Z,14.63
2022-08-04T18:53:35.699Z,16.55
2022-08-04T18:56:06.275Z,16.05
2022-08-04T18:58:45.234Z,12.85
2022-08-04T19:01:14.193Z,13.65
2022-08-04T19:03:44.714Z,12.63
2022-08-04T19:06:15.989Z,12.70
2022-08-04T19:08:45.235Z,11.15
2022-08-04T19:14:04.417Z,11.50
2022-08-04T19:16:33.349Z,11.85
2022-08-04T19:19:05.640Z,9.93
2022-08-04T19:21:59.566Z,9.65
2022-08-04T19:24:32.821Z,10.27
2022-08-04T19:27:08.249Z,11.40
2022-08-04T19:29:41.158Z,9.90
2022-08-04T19:32:17.480Z,24.83
2022-08-04T19:34:47.459Z,26.08
2022-08-04T19:37:58.501Z,13.57
2022-08-04T19:43:06.195Z,13.02
2022-08-04T19:45:44.584Z,15.32
2022-08-04T19:48:21.579Z,14.05
2022-08-04T19:50:50.236Z,13.88
2022-08-04T19:53:20.168Z,14.73
2022-08-04T19:56:05.199Z,17.85
2022-08-04T19:58:32.739Z,15.82
2022-08-04T20:01:00.402Z,14.60
2022-08-04T20:04:10.102Z,13.73
2022-08-04T20:06:15.430Z,14.00
2022-08-04T20:08:48.499Z,12.05
2022-08-04T20:11:18.509Z,14.30
2022-08-04T20:13:54.610Z,13.63
2022-08-04T20:16:29.325Z,13.48
2022-08-04T20:19:03.269Z,13.05
2022-08-04T20:21:54.300Z,12.77
2022-08-04T20:24:40.157Z,12.48
2022-08-04T20:27:15.312Z,15.95
2022-08-04T20:29:51.212Z,18.70
2022-08-04T20:32:22.107Z,14.95
2022-08-04T20:34:54.813Z,15.30
2022-08-04T20:37:24.332Z,13.13
2022-08-04T20:39:58.646Z,12.38
2022-08-04T20:42:34.445Z,12.57
2022-08-04T20:45:03.769Z,11.40
2022-08-04T20:47:36.512Z,13.25
2022-08-04T20:50:08.897Z,13.35
2022-08-04T20:52:40.067Z,12.27
2022-08-04T20:55:08.406Z,13.73
2022-08-04T20:57:48.435Z,12.90
2022-08-04T21:00:29.968Z,11.95
2022-08-04T21:02:59.189Z,13.70
2022-08-04T21:05:27.130Z,12.18
2022-08-04T21:07:57.245Z,16.50
2022-08-04T21:10:25.728Z,29.38
2022-08-04T21:12:57.351Z,14.05
2022-08-04T21:15:50.764Z,15.25
2022-08-04T21:18:14.445Z,15.10
2022-08-04T21:20:44.519Z,12.20
2022-08-04T21:23:15.837Z,14.73
2022-08-04T21:25:45.112Z,11.60
2022-08-04T21:28:20.417Z,11.82
2022-08-04T21:30:54.149Z,12.80
2022-08-04T21:33:24.010Z,14.35
2022-08-04T21:35:54.007Z,15.52
2022-08-04T21:38:27.926Z,14.38
2022-08-04T21:40:58.634Z,14.52
2022-08-04T21:43:42.474Z,15.10
2022-08-04T21:46:11.406Z,20.30
2022-08-04T21:48:39.793Z,20.50
2022-08-04T21:52:00.263Z,15.70
2022-08-04T21:54:11.635Z,12.90
2022-08-04T21:56:42.833Z,14.68
2022-08-04T21:59:24.191Z,20.73
2022-08-04T22:02:00.847Z,15.05
2022-08-04T22:04:30.513Z,13.32
2022-08-04T22:06:58.416Z,12.55
2022-08-04T22:09:31.025Z,14.02
2022-08-04T22:12:06.698Z,14.93
2022-08-04T22:14:39.458Z,14.45
2022-08-04T22:17:06.982Z,16.10
2022-08-04T22:19:55.220Z,15.73
2022-08-04T22:22:29.432Z,14.55
2022-08-04T22:28:00.780Z,14.05
2022-08-04T22:30:36.870Z,14.75
2022-08-04T22:33:07.718Z,14.73
2022-08-04T22:35:48.506Z,25.98
2022-08-04T22:38:25.271Z,27.05
2022-08-04T22:41:02.469Z,22.67
2022-08-04T22:43:33.582Z,999.90
2022-08-04T22:46:05.329Z,24.58
2022-08-04T22:48:36.327Z,999.90
2022-08-04T22:51:05.810Z,999.90
2022-08-04T22:53:35.495Z,999.90
2022-08-04T22:56:09.945Z,999.90
2022-08-04T22:58:51.332Z,999.90
2022-08-04T23:01:19.238Z,999.90
2022-08-04T23:03:55.129Z,999.90
2022-08-04T23:06:28.332Z,999.90
2022-08-04T23:08:57.602Z,999.90
2022-08-04T23:11:24.911Z,999.90
2022-08-04T23:14:03.385Z,999.90
2022-08-04T23:16:32.433Z,999.90
2022-08-04T23:19:00.145Z,999.90
2022-08-04T23:21:40.684Z,999.90
2022-08-04T23:24:08.660Z,999.90
2022-08-04T23:26:36.882Z,999.90
2022-08-04T23:29:04.301Z,999.90
2022-08-04T23:31:40.480Z,999.90
2022-08-04T23:34:09.186Z,999.90
2022-08-04T23:36:40.415Z,999.90
2022-08-04T23:39:07.756Z,999.90
2022-08-04T23:41:54.393Z,999.90
2022-08-04T23:44:25.882Z,999.90
2022-08-04T23:46:59.141Z,14.82
2022-08-04T23:49:43.439Z,24.20
2022-08-04T23:52:15.829Z,21.38
2022-08-04T23:54:55.810Z,21.10
2022-08-04T23:57:23.322Z,21.30
2022-08-04T23:59:54.961Z,25.00
